Cadamy, Mississippi
Current Conditions -  °F | °C
As of 1:53 AM on Thursday 27 Nov 2014 (Local Time) from KTUP Reporting Station
Clear Clear  
Wind Chill: 40°   Ceiling: Unl
Heat Index: 40°   Visibility: 10mi
Dew Point: 31°   Wind: 3mph
Humidity: 70%   Direction: NA
Pressure: 30.23"   Gusts: NA
Location:  34.2327°N, 88.2315°W
Report Text: KTUP 270753Z AUTO VRB03KT 10SM CLR 04/M01 A3023 RMK AO2 SLP238 T00441006 $
Loading
Personal Weather Stations






























Interactive Weather Map New forecast layout! Learn more

10-Day Weather Forecast

Advertisements
Track Severe Weather on mobile